Time;durP1;ratioP1;P1;durP2;ratioP2;P2;SDS_P1;SDS_P2;PMS_P1;PMS_P2;Temp;Humidity;BMP_temperature;BMP_pressure;BME280_temperature;BME280_humidity;BME280_pressure;Samples;Min_cycle;Max_cycle;Signal;HPM_P1;HPM_P2
2021/08/20 00:00:13;;;;;;;4.63;1.77;;;19.70;99.90;;;;;;5071147;28;20234;-62
2021/08/20 00:02:41;;;;;;;3.67;1.65;;;19.70;99.90;;;;;;5070928;28;20205;-61
2021/08/20 00:05:09;;;;;;;3.38;2.08;;;19.60;99.90;;;;;;5070705;28;20209;-63
2021/08/20 00:07:37;;;;;;;2.10;1.67;;;19.60;99.90;;;;;;5070585;28;20231;-63
2021/08/20 00:10:05;;;;;;;4.88;1.73;;;19.50;99.90;;;;;;5070687;28;20262;-61
2021/08/20 00:12:31;;;;;;;4.45;1.77;;;19.40;99.90;;;;;;5070595;28;20852;-62
2021/08/20 00:14:58;;;;;;;2.80;2.30;;;19.30;99.90;;;;;;5070831;28;20208;-62
2021/08/20 00:17:25;;;;;;;3.10;1.85;;;19.20;99.90;;;;;;5070458;28;20251;-61
2021/08/20 00:19:53;;;;;;;3.35;2.00;;;19.20;99.90;;;;;;5070511;28;20209;-63
2021/08/20 00:22:20;;;;;;;2.80;2.00;;;19.10;99.90;;;;;;5070601;28;20205;-61
2021/08/20 00:24:48;;;;;;;3.47;2.00;;;19.00;99.90;;;;;;5070731;28;20256;-62
2021/08/20 00:27:14;;;;;;;3.42;2.00;;;19.00;99.90;;;;;;5070670;28;20305;-63
2021/08/20 00:29:41;;;;;;;4.10;2.28;;;19.00;99.90;;;;;;5070480;28;20209;-61
2021/08/20 00:32:08;;;;;;;3.28;2.33;;;19.10;99.90;;;;;;5070483;28;20216;-62
2021/08/20 00:34:35;;;;;;;3.50;2.45;;;19.10;99.90;;;;;;5070390;28;20605;-63
2021/08/20 00:37:02;;;;;;;2.92;2.28;;;19.10;99.90;;;;;;5070365;28;20197;-61
2021/08/20 00:39:29;;;;;;;2.53;2.08;;;19.10;99.90;;;;;;5070025;28;20623;-60
2021/08/20 00:41:57;;;;;;;3.08;1.90;;;19.20;99.90;;;;;;5070544;28;20207;-61
2021/08/20 00:44:23;;;;;;;2.35;1.88;;;19.20;99.90;;;;;;5070320;28;20208;-61
2021/08/20 00:46:50;;;;;;;2.42;1.92;;;19.20;99.90;;;;;;5070338;28;20236;-61
2021/08/20 00:49:17;;;;;;;3.95;2.10;;;19.20;99.90;;;;;;5070166;28;20229;-61
2021/08/20 00:51:45;;;;;;;3.60;2.22;;;19.20;99.90;;;;;;5073016;28;20209;-60
2021/08/20 00:54:13;;;;;;;4.57;2.20;;;19.20;99.90;;;;;;5074003;28;20247;-61
2021/08/20 00:56:41;;;;;;;3.13;2.15;;;19.20;99.90;;;;;;5074387;28;20250;-60
2021/08/20 00:59:10;;;;;;;2.40;2.10;;;19.20;99.90;;;;;;5073894;28;20233;-61
2021/08/20 01:01:37;;;;;;;3.50;2.08;;;19.30;99.90;;;;;;5074028;28;20262;-61
2021/08/20 01:04:03;;;;;;;3.17;2.25;;;19.30;99.90;;;;;;5074077;28;20204;-60
2021/08/20 01:06:30;;;;;;;4.20;2.10;;;19.30;99.90;;;;;;5074192;28;20290;-60
2021/08/20 01:08:57;;;;;;;2.30;2.10;;;19.30;99.90;;;;;;5073999;28;20341;-61
2021/08/20 01:11:27;;;;;;;3.25;2.03;;;19.30;99.90;;;;;;5074201;28;20209;-63
2021/08/20 01:13:54;;;;;;;5.10;2.10;;;19.30;99.90;;;;;;5073752;28;20208;-63
2021/08/20 01:16:22;;;;;;;2.30;2.10;;;19.30;99.90;;;;;;5074196;28;20808;-62
2021/08/20 01:18:49;;;;;;;3.50;2.13;;;19.30;99.90;;;;;;5073314;28;20319;-60
2021/08/20 01:21:17;;;;;;;3.92;2.03;;;19.30;99.90;;;;;;5073606;28;20212;-61
2021/08/20 01:23:46;;;;;;;2.40;1.92;;;19.30;99.90;;;;;;5073516;28;20444;-61
2021/08/20 01:26:14;;;;;;;3.67;2.00;;;19.20;99.90;;;;;;5073575;28;20221;-61
2021/08/20 01:28:41;;;;;;;5.60;2.33;;;19.10;99.90;;;;;;5073213;28;20240;-61
2021/08/20 01:31:10;;;;;;;2.80;1.85;;;19.10;99.90;;;;;;5073244;28;20208;-61
2021/08/20 01:33:37;;;;;;;2.50;2.03;;;19.00;99.90;;;;;;5073415;28;20240;-60
2021/08/20 01:36:05;;;;;;;3.85;1.90;;;19.00;99.90;;;;;;5073378;28;20209;-61
2021/08/20 01:38:34;;;;;;;3.00;1.90;;;19.00;99.90;;;;;;5073054;28;20232;-60
2021/08/20 01:41:00;;;;;;;6.07;1.95;;;19.00;99.90;;;;;;5073379;28;20215;-62
2021/08/20 01:43:28;;;;;;;3.58;2.22;;;19.00;99.90;;;;;;5072981;28;20437;-61
2021/08/20 01:45:55;;;;;;;3.33;2.25;;;19.00;99.90;;;;;;5073371;28;20208;-61
2021/08/20 01:48:22;;;;;;;4.18;2.20;;;18.90;99.90;;;;;;5072958;28;20270;-62
2021/08/20 01:50:48;;;;;;;2.92;2.22;;;18.90;99.90;;;;;;5073127;28;20213;-61
2021/08/20 01:53:15;;;;;;;2.90;1.98;;;18.80;99.90;;;;;;5073223;28;20254;-62
2021/08/20 01:55:44;;;;;;;3.80;1.90;;;18.90;99.90;;;;;;5073094;28;20201;-61
2021/08/20 01:58:12;;;;;;;4.45;2.03;;;18.90;99.90;;;;;;5072865;28;20221;-61
2021/08/20 02:00:41;;;;;;;2.38;1.90;;;18.90;99.90;;;;;;5073069;28;20213;-62
2021/08/20 02:03:08;;;;;;;2.08;1.88;;;18.90;99.90;;;;;;5072645;28;20248;-61
2021/08/20 02:05:34;;;;;;;4.38;2.10;;;18.90;99.90;;;;;;5072856;28;20247;-61
2021/08/20 02:08:01;;;;;;;2.47;2.05;;;18.80;99.90;;;;;;5072870;28;20731;-61
2021/08/20 02:10:29;;;;;;;3.72;2.10;;;18.90;99.90;;;;;;5072722;28;20212;-61
2021/08/20 02:12:55;;;;;;;3.75;2.42;;;18.80;99.90;;;;;;5072597;28;20672;-60
2021/08/20 02:15:22;;;;;;;2.35;2.15;;;18.80;99.90;;;;;;5072781;28;20201;-62
2021/08/20 02:17:50;;;;;;;3.80;2.20;;;18.80;99.90;;;;;;5072538;28;20244;-61
2021/08/20 02:20:17;;;;;;;5.45;2.40;;;18.80;99.90;;;;;;5073054;28;20209;-62
2021/08/20 02:22:43;;;;;;;2.15;1.88;;;18.80;99.90;;;;;;5072693;28;20205;-61
2021/08/20 02:25:10;;;;;;;2.53;2.17;;;18.80;99.90;;;;;;5072104;28;20205;-61
2021/08/20 02:27:37;;;;;;;5.82;2.20;;;18.80;99.90;;;;;;5072272;28;20236;-62
2021/08/20 02:30:05;;;;;;;3.58;2.00;;;18.80;99.90;;;;;;5072303;28;20270;-61
2021/08/20 02:32:31;;;;;;;3.67;2.30;;;18.80;99.90;;;;;;5072276;28;20242;-60
2021/08/20 02:35:00;;;;;;;5.90;2.05;;;18.80;99.90;;;;;;5072279;28;20205;-61
2021/08/20 02:37:27;;;;;;;2.90;2.00;;;18.80;99.90;;;;;;5072084;28;20396;-62
2021/08/20 02:39:54;;;;;;;3.15;1.90;;;18.90;99.90;;;;;;5071941;28;20205;-61
2021/08/20 02:42:20;;;;;;;4.18;2.00;;;18.90;99.90;;;;;;5072109;28;20205;-61
2021/08/20 02:44:47;;;;;;;5.25;2.70;;;18.90;99.90;;;;;;5071811;28;20414;-61
2021/08/20 02:47:14;;;;;;;2.50;1.80;;;18.90;99.90;;;;;;5072119;28;20227;-61
2021/08/20 02:49:40;;;;;;;2.83;2.28;;;19.00;99.90;;;;;;5071972;28;20557;-61
2021/08/20 02:52:09;;;;;;;2.88;2.03;;;19.00;99.90;;;;;;5072037;28;20726;-62
2021/08/20 02:54:35;;;;;;;2.85;2.20;;;19.00;99.90;;;;;;5071973;28;20200;-62
2021/08/20 02:57:02;;;;;;;7.13;2.30;;;19.00;99.90;;;;;;5071763;28;20205;-60
2021/08/20 02:59:29;;;;;;;2.55;2.10;;;19.00;99.90;;;;;;5071617;28;20252;-62
2021/08/20 03:01:55;;;;;;;4.45;2.17;;;19.00;99.90;;;;;;5071916;28;20205;-61
2021/08/20 03:04:22;;;;;;;4.43;2.08;;;19.00;99.90;;;;;;5071599;28;20278;-61
2021/08/20 03:06:49;;;;;;;3.75;2.28;;;19.10;99.90;;;;;;5071641;28;20213;-62
2021/08/20 03:09:18;;;;;;;3.65;2.30;;;19.00;99.90;;;;;;5071851;28;20232;-62
2021/08/20 03:11:47;;;;;;;4.90;2.40;;;19.00;99.90;;;;;;5071395;28;20615;-62
2021/08/20 03:14:14;;;;;;;2.80;2.35;;;19.00;99.90;;;;;;5070707;28;20200;-62
2021/08/20 03:16:41;;;;;;;5.40;2.63;;;19.00;99.90;;;;;;5071528;28;20213;-61
2021/08/20 03:19:07;;;;;;;3.25;2.20;;;19.00;99.90;;;;;;5071754;28;20224;-62
2021/08/20 03:21:34;;;;;;;4.20;2.30;;;19.00;99.90;;;;;;5071487;28;20209;-62
2021/08/20 03:24:01;;;;;;;4.82;1.92;;;19.00;99.90;;;;;;5071785;28;20208;-62
2021/08/20 03:26:29;;;;;;;4.57;2.67;;;18.90;99.90;;;;;;5071844;28;20212;-62
2021/08/20 03:28:56;;;;;;;3.38;2.00;;;19.00;99.90;;;;;;5071295;28;20259;-62
2021/08/20 03:31:22;;;;;;;6.75;1.90;;;19.00;99.90;;;;;;5071387;28;20208;-62
2021/08/20 03:33:49;;;;;;;3.33;1.90;;;19.00;99.90;;;;;;5071184;28;20209;-60
2021/08/20 03:36:16;;;;;;;3.10;1.85;;;19.00;99.90;;;;;;5071021;28;20236;-62
2021/08/20 03:38:43;;;;;;;2.92;2.20;;;19.00;99.90;;;;;;5071511;28;20232;-62
2021/08/20 03:41:11;;;;;;;5.00;2.15;;;19.10;99.90;;;;;;5071211;28;20209;-62
2021/08/20 03:43:39;;;;;;;3.05;2.30;;;19.10;99.90;;;;;;5070968;28;20208;-62
2021/08/20 03:46:09;;;;;;;3.33;2.10;;;19.10;99.90;;;;;;5070915;28;20204;-61
2021/08/20 03:48:36;;;;;;;1.65;1.55;;;19.10;99.90;;;;;;5070859;28;20232;-62
2021/08/20 03:51:02;;;;;;;2.25;1.70;;;19.10;99.90;;;;;;5071110;28;20212;-62
2021/08/20 03:53:29;;;;;;;2.95;1.55;;;19.10;99.90;;;;;;5071006;28;20696;-62
2021/08/20 03:55:56;;;;;;;3.65;2.40;;;19.10;99.90;;;;;;5070979;28;20212;-61
2021/08/20 03:58:22;;;;;;;5.10;2.67;;;19.10;99.90;;;;;;5070710;28;20229;-62
2021/08/20 04:00:52;;;;;;;4.43;2.30;;;19.10;99.90;;;;;;5070936;28;20208;-62
2021/08/20 04:03:19;;;;;;;4.07;2.50;;;19.10;99.90;;;;;;5070764;28;20207;-62
2021/08/20 04:05:46;;;;;;;3.00;2.10;;;19.10;99.90;;;;;;5070684;28;20287;-61
2021/08/20 04:08:13;;;;;;;3.03;2.30;;;19.00;99.90;;;;;;5070522;28;20606;-62
2021/08/20 04:10:40;;;;;;;5.75;2.47;;;19.00;99.90;;;;;;5071908;28;20749;-61
2021/08/20 04:13:08;;;;;;;4.95;2.63;;;19.00;99.90;;;;;;5071884;28;20204;-62
2021/08/20 04:15:34;;;;;;;5.32;2.35;;;19.00;99.90;;;;;;5071145;28;20205;-62
2021/08/20 04:18:03;;;;;;;3.58;2.00;;;18.90;99.90;;;;;;5070502;28;21242;-62
2021/08/20 04:20:29;;;;;;;2.40;1.90;;;18.90;99.90;;;;;;5070968;28;20202;-62
2021/08/20 04:22:56;;;;;;;2.35;2.03;;;18.90;99.90;;;;;;5070751;28;20208;-62
2021/08/20 04:25:23;;;;;;;3.00;2.47;;;18.80;99.90;;;;;;5072664;28;20299;-61
2021/08/20 04:27:50;;;;;;;3.88;2.20;;;18.70;99.90;;;;;;5074585;28;20302;-62
2021/08/20 04:30:19;;;;;;;4.28;2.10;;;18.70;99.90;;;;;;5074524;28;20209;-62
2021/08/20 04:32:45;;;;;;;3.20;2.20;;;18.70;99.90;;;;;;5074869;28;20461;-61
2021/08/20 04:35:14;;;;;;;10.80;6.15;;;18.60;99.90;;;;;;5074603;28;20209;-62
2021/08/20 04:37:41;;;;;;;4.80;4.30;;;18.70;99.90;;;;;;5074222;28;20761;-62
2021/08/20 04:40:09;;;;;;;5.90;5.30;;;18.70;99.90;;;;;;5074248;28;20270;-61
2021/08/20 04:42:35;;;;;;;2.78;2.42;;;18.80;99.90;;;;;;5074310;28;20261;-62
2021/08/20 04:45:02;;;;;;;3.13;2.83;;;18.80;99.90;;;;;;5073973;28;20209;-61
2021/08/20 04:47:29;;;;;;;5.25;3.53;;;18.80;99.90;;;;;;5074316;28;20262;-61
2021/08/20 04:49:55;;;;;;;7.00;4.60;;;18.80;99.90;;;;;;5074404;28;20491;-62
2021/08/20 04:52:24;;;;;;;6.55;2.72;;;18.80;99.90;;;;;;5074239;28;20201;-61
2021/08/20 04:54:50;;;;;;;4.93;2.65;;;18.80;99.90;;;;;;5073932;28;20209;-62
2021/08/20 04:57:17;;;;;;;2.80;2.50;;;18.70;99.90;;;;;;5073996;28;20299;-61
2021/08/20 04:59:44;;;;;;;3.95;2.60;;;18.70;99.90;;;;;;5074181;28;20209;-62
2021/08/20 05:02:10;;;;;;;3.13;2.45;;;18.70;99.90;;;;;;5073981;28;20212;-61
2021/08/20 05:04:37;;;;;;;3.03;2.28;;;18.80;99.90;;;;;;5074528;28;20208;-62
2021/08/20 05:07:04;;;;;;;2.83;2.35;;;18.90;99.90;;;;;;5074062;28;20211;-62
2021/08/20 05:09:34;;;;;;;5.10;2.67;;;18.90;99.90;;;;;;5073581;28;20286;-62
2021/08/20 05:12:01;;;;;;;3.70;2.30;;;19.00;99.90;;;;;;5074081;28;20212;-62
2021/08/20 05:14:27;;;;;;;2.33;2.13;;;19.00;99.90;;;;;;5073768;28;20216;-61
2021/08/20 05:16:54;;;;;;;3.17;2.40;;;19.00;99.90;;;;;;5073729;28;20230;-62
2021/08/20 05:19:21;;;;;;;2.80;2.40;;;19.00;99.90;;;;;;5073544;28;20500;-62
2021/08/20 05:21:47;;;;;;;5.78;2.60;;;19.00;99.90;;;;;;5073759;28;20211;-62
2021/08/20 05:24:14;;;;;;;2.67;2.20;;;19.00;99.90;;;;;;5073466;28;20276;-62
2021/08/20 05:26:42;;;;;;;5.35;2.10;;;19.00;99.90;;;;;;5073763;28;20234;-61
2021/08/20 05:29:09;;;;;;;5.93;2.67;;;19.10;99.90;;;;;;5073593;28;20746;-62
2021/08/20 05:31:35;;;;;;;3.70;2.28;;;19.10;99.90;;;;;;5073522;28;20205;-60
2021/08/20 05:34:02;;;;;;;6.45;2.13;;;19.20;99.90;;;;;;5073311;28;20345;-62
2021/08/20 05:36:29;;;;;;;3.28;2.25;;;19.20;99.90;;;;;;5072864;28;20225;-62
2021/08/20 05:38:55;;;;;;;2.53;2.20;;;19.30;99.90;;;;;;5073004;28;20262;-62
2021/08/20 05:41:22;;;;;;;5.25;2.42;;;19.40;99.90;;;;;;5073470;28;20262;-61
2021/08/20 05:43:50;;;;;;;6.55;2.33;;;19.40;99.90;;;;;;5073050;28;20209;-62
2021/08/20 05:46:17;;;;;;;4.22;2.20;;;19.50;99.90;;;;;;5073388;28;20205;-62
2021/08/20 05:48:43;;;;;;;3.55;2.08;;;19.60;99.90;;;;;;5072971;28;20229;-62
2021/08/20 05:51:10;;;;;;;5.38;2.55;;;19.60;99.90;;;;;;5073023;28;20258;-61
2021/08/20 05:53:36;;;;;;;4.32;2.50;;;19.70;99.90;;;;;;5072699;28;20209;-62
2021/08/20 05:56:03;;;;;;;7.03;3.58;;;19.80;99.90;;;;;;5073255;28;20201;-62
2021/08/20 05:58:30;;;;;;;5.55;2.55;;;19.90;99.90;;;;;;5072902;28;20252;-62
2021/08/20 06:00:58;;;;;;;4.78;2.50;;;20.00;99.90;;;;;;5073247;28;20587;-62
2021/08/20 06:03:25;;;;;;;3.00;2.10;;;20.10;99.90;;;;;;5072594;28;20672;-61
2021/08/20 06:05:51;;;;;;;4.28;2.35;;;20.20;99.90;;;;;;5072746;28;20216;-61
2021/08/20 06:08:18;;;;;;;3.72;2.30;;;20.30;99.90;;;;;;5072642;28;20235;-62
2021/08/20 06:10:47;;;;;;;4.60;2.70;;;20.40;99.90;;;;;;5072702;28;20201;-62
2021/08/20 06:13:14;;;;;;;6.93;2.70;;;20.50;99.90;;;;;;5072797;28;20220;-61
2021/08/20 06:15:41;;;;;;;4.90;2.70;;;20.70;99.90;;;;;;5072495;28;20205;-62
2021/08/20 06:18:09;;;;;;;3.63;2.60;;;20.80;99.90;;;;;;5072431;28;20286;-61
2021/08/20 06:20:35;;;;;;;3.72;2.60;;;21.00;99.90;;;;;;5072520;28;20213;-62
2021/08/20 06:23:02;;;;;;;4.20;2.50;;;21.10;99.90;;;;;;5072486;28;20587;-62
2021/08/20 06:25:29;;;;;;;9.02;2.90;;;21.30;99.90;;;;;;5072340;28;20216;-62
2021/08/20 06:27:55;;;;;;;5.25;3.00;;;21.50;99.90;;;;;;5072211;28;20282;-62
2021/08/20 06:30:22;;;;;;;4.13;2.88;;;21.50;99.90;;;;;;5072572;28;20225;-60
2021/08/20 06:32:48;;;;;;;11.82;3.42;;;21.70;99.90;;;;;;5072322;28;20209;-62
2021/08/20 06:35:17;;;;;;;7.65;3.10;;;21.80;99.90;;;;;;5072030;28;20216;-62
2021/08/20 06:37:43;;;;;;;5.30;2.97;;;22.00;99.90;;;;;;5072151;28;20237;-62
2021/08/20 06:40:11;;;;;;;6.30;2.70;;;22.10;99.90;;;;;;5072190;28;20207;-62
2021/08/20 06:42:38;;;;;;;7.70;2.85;;;22.20;99.90;;;;;;5072107;28;20582;-62
2021/08/20 06:45:05;;;;;;;10.90;3.00;;;22.30;99.90;;;;;;5071643;28;20621;-61
2021/08/20 06:47:32;;;;;;;9.35;2.83;;;22.50;99.90;;;;;;5071506;28;20217;-61
2021/08/20 06:49:59;;;;;;;4.32;2.40;;;22.60;99.90;;;;;;5070799;28;20233;-61
2021/08/20 06:52:28;;;;;;;5.63;2.53;;;22.70;99.90;;;;;;5071951;28;20200;-61
2021/08/20 06:54:58;;;;;;;3.15;2.63;;;22.80;99.90;;;;;;5071712;28;20205;-62
2021/08/20 06:57:24;;;;;;;3.67;2.25;;;23.00;99.90;;;;;;5071609;28;20616;-62
2021/08/20 06:59:51;;;;;;;5.10;2.95;;;23.20;99.90;;;;;;5071378;28;20734;-59
2021/08/20 07:02:17;;;;;;;3.72;2.40;;;23.50;99.90;;;;;;5071335;28;20626;-59
2021/08/20 07:04:44;;;;;;;2.80;2.45;;;23.80;99.90;;;;;;5071799;28;20212;-60
2021/08/20 07:07:11;;;;;;;6.38;2.60;;;24.00;99.90;;;;;;5071693;28;20205;-60
2021/08/20 07:09:39;;;;;;;3.45;2.35;;;24.30;99.90;;;;;;5071392;28;20233;-60
2021/08/20 07:12:06;;;;;;;7.90;3.20;;;24.60;99.90;;;;;;5071463;28;20209;-60
2021/08/20 07:14:33;;;;;;;3.42;2.75;;;24.90;99.90;;;;;;5071175;28;20212;-61
2021/08/20 07:16:59;;;;;;;6.28;3.00;;;25.20;99.90;;;;;;5071144;28;20208;-60
2021/08/20 07:19:26;;;;;;;5.13;2.92;;;25.40;99.90;;;;;;5071242;28;20221;-60
2021/08/20 07:21:53;;;;;;;7.20;3.13;;;25.70;99.90;;;;;;5071188;28;20209;-60
2021/08/20 07:24:20;;;;;;;6.72;3.28;;;25.90;99.90;;;;;;5071185;28;20452;-61
2021/08/20 07:26:48;;;;;;;6.60;3.22;;;26.10;99.90;;;;;;5071266;28;20205;-60
2021/08/20 07:29:14;;;;;;;5.78;3.15;;;26.30;99.90;;;;;;5070826;28;20699;-60
2021/08/20 07:31:41;;;;;;;4.82;3.20;;;26.50;99.90;;;;;;5071235;28;20638;-60
2021/08/20 07:34:08;;;;;;;3.72;3.17;;;26.60;99.90;;;;;;5071110;28;20209;-61
2021/08/20 07:36:34;;;;;;;5.88;3.13;;;26.90;99.90;;;;;;5071221;28;20209;-61
2021/08/20 07:39:01;;;;;;;5.53;3.13;;;27.60;99.90;;;;;;5070702;28;20228;-61
2021/08/20 07:41:28;;;;;;;4.13;3.30;;;28.10;99.90;;;;;;5071051;28;20209;-60
2021/08/20 07:43:56;;;;;;;3.53;3.20;;;28.40;99.90;;;;;;5070667;28;20213;-60
2021/08/20 07:46:22;;;;;;;4.18;3.70;;;28.50;99.90;;;;;;5071078;28;20212;-60
2021/08/20 07:48:49;;;;;;;5.30;3.60;;;29.30;99.90;;;;;;5070731;28;20220;-60
2021/08/20 07:51:15;;;;;;;4.25;3.47;;;30.00;99.90;;;;;;5070949;28;20200;-60
2021/08/20 07:53:42;;;;;;;8.55;7.38;;;30.80;99.90;;;;;;5070844;28;20205;-61
2021/08/20 07:56:09;;;;;;;5.80;3.22;;;31.90;98.80;;;;;;5071294;28;20200;-61
2021/08/20 07:58:35;;;;;;;5.75;3.40;;;33.00;95.20;;;;;;5071175;28;20229;-59
2021/08/20 08:01:04;;;;;;;6.00;3.70;;;33.90;92.30;;;;;;5070759;28;20205;-61
2021/08/20 08:03:30;;;;;;;7.10;3.40;;;34.60;90.30;;;;;;5071101;28;20201;-59
2021/08/20 08:05:57;;;;;;;4.18;3.22;;;35.30;85.90;;;;;;5071136;28;20208;-59
2021/08/20 08:08:23;;;;;;;3.80;3.17;;;36.00;81.30;;;;;;5070739;28;20221;-59
2021/08/20 08:10:50;;;;;;;3.63;3.30;;;36.50;77.60;;;;;;5071052;28;20207;-58
2021/08/20 08:13:17;;;;;;;4.25;3.47;;;36.80;75.30;;;;;;5070741;28;20228;-59
2021/08/20 08:15:44;;;;;;;4.15;3.20;;;37.30;71.70;;;;;;5070807;28;20437;-59
2021/08/20 08:18:12;;;;;;;3.50;3.20;;;37.50;69.20;;;;;;5070531;28;20224;-59
2021/08/20 08:20:38;;;;;;;6.10;3.35;;;37.60;68.70;;;;;;5070350;28;20205;-59
2021/08/20 08:23:05;;;;;;;7.53;4.10;;;37.80;67.00;;;;;;5070449;28;20583;-59
2021/08/20 08:25:32;;;;;;;5.18;3.60;;;37.70;67.00;;;;;;5070347;28;20219;-59
2021/08/20 08:28:00;;;;;;;6.22;3.50;;;37.10;66.00;;;;;;5070291;28;20225;-58
2021/08/20 08:30:28;;;;;;;9.23;3.90;;;35.70;69.10;;;;;;5070575;28;20234;-58
2021/08/20 08:32:58;;;;;;;4.78;4.28;;;34.30;72.90;;;;;;5070561;28;20208;-59
2021/08/20 08:35:28;;;;;;;5.97;4.18;;;33.00;74.80;;;;;;5070224;28;20216;-59
2021/08/20 08:38:02;;;;;;;5.80;3.95;;;31.80;79.20;;;;;;5070564;28;20331;-59
2021/08/20 08:40:29;;;;;;;5.15;4.45;;;30.60;84.60;;;;;;5070352;28;20681;-58
2021/08/20 08:42:57;;;;;;;7.20;4.43;;;29.90;87.60;;;;;;5070584;28;20201;-57
2021/08/20 08:45:24;;;;;;;6.43;4.35;;;29.50;90.10;;;;;;5070281;28;20631;-61
2021/08/20 08:47:54;;;;;;;6.45;4.60;;;29.10;90.60;;;;;;5070155;28;20234;-61
2021/08/20 08:50:22;;;;;;;7.20;4.60;;;28.80;91.20;;;;;;5070040;28;20240;-61
2021/08/20 08:52:50;;;;;;;5.43;4.78;;;28.50;92.20;;;;;;5070051;28;20860;-61
2021/08/20 08:55:16;;;;;;;7.65;4.80;;;28.40;92.20;;;;;;5070214;28;20240;-61
2021/08/20 08:57:43;;;;;;;6.05;5.00;;;28.40;93.00;;;;;;5070148;28;20221;-64
2021/08/20 09:00:11;;;;;;;4.97;3.70;;;28.50;93.00;;;;;;5070260;28;20204;-58
2021/08/20 09:02:38;;;;;;;4.35;3.95;;;28.60;92.70;;;;;;5070120;28;20201;-59
2021/08/20 09:05:10;;;;;;;7.45;4.60;;;28.70;92.10;;;;;;5070501;28;20263;-60
2021/08/20 09:07:37;;;;;;;6.28;4.10;;;28.80;92.50;;;;;;5070041;28;20282;-60
2021/08/20 09:10:20;;;;;;;5.38;4.63;;;29.00;92.40;;;;;;5070060;28;20231;-59
2021/08/20 09:12:54;;;;;;;4.50;3.97;;;29.10;92.30;;;;;;5072758;28;20216;-58
2021/08/20 09:15:24;;;;;;;5.78;3.70;;;29.20;92.10;;;;;;5073624;28;20204;-58
2021/08/20 09:17:53;;;;;;;6.85;4.40;;;29.00;92.40;;;;;;5073513;28;20233;-59
2021/08/20 09:20:24;;;;;;;11.25;6.70;;;28.40;93.10;;;;;;5073743;28;20208;-60
2021/08/20 09:22:54;;;;;;;5.53;4.30;;;28.20;93.90;;;;;;5073796;28;20648;-63
2021/08/20 09:25:37;;;;;;;5.43;3.97;;;27.80;94.10;;;;;;5073408;28;20213;-62
2021/08/20 09:28:28;;;;;;;6.40;3.72;;;27.10;94.60;;;;;;5073227;28;20231;-59
2021/08/20 09:31:01;;;;;;;4.57;3.63;;;26.70;96.20;;;;;;5058445;28;20233;-59
2021/08/20 09:33:29;;;;;;;6.22;4.57;;;26.50;96.50;;;;;;5073391;28;20209;-59
2021/08/20 09:35:58;;;;;;;5.70;4.40;;;26.80;96.70;;;;;;5074122;28;20209;-58
2021/08/20 09:38:25;;;;;;;4.82;4.00;;;27.00;95.70;;;;;;5074022;28;20282;-57
2021/08/20 09:40:56;;;;;;;4.63;4.07;;;27.20;95.80;;;;;;5073418;28;20201;-59
2021/08/20 09:43:27;;;;;;;4.50;4.10;;;27.00;96.30;;;;;;5073003;28;20714;-58
2021/08/20 09:46:01;;;;;;;4.40;3.92;;;27.20;96.10;;;;;;5073321;28;20200;-59
2021/08/20 09:48:50;;;;;;;7.07;4.50;;;27.30;95.90;;;;;;5073478;28;20300;-59
2021/08/20 09:51:45;;;;;;;5.40;4.10;;;27.20;95.60;;;;;;5072892;28;20232;-57
2021/08/20 09:54:14;;;;;;;4.35;3.95;;;27.20;96.10;;;;;;5072752;28;20223;-58
2021/08/20 09:56:43;;;;;;;4.78;3.80;;;27.00;96.10;;;;;;5072961;28;20588;-58
2021/08/20 09:59:12;;;;;;;6.47;3.58;;;26.90;95.50;;;;;;5072778;28;20229;-58
2021/08/20 10:01:41;;;;;;;4.72;4.22;;;26.80;95.20;;;;;;5072772;28;20574;-58
2021/08/20 10:04:09;;;;;;;4.38;3.70;;;26.90;95.60;;;;;;5072808;28;20209;-58
2021/08/20 10:06:37;;;;;;;5.00;4.15;;;27.10;95.80;;;;;;5072853;28;20322;-57
2021/08/20 10:09:07;;;;;;;6.22;3.75;;;27.60;95.30;;;;;;5072334;28;20712;-58
2021/08/20 10:11:36;;;;;;;4.40;3.15;;;28.20;94.40;;;;;;5072667;28;20213;-57
2021/08/20 10:14:05;;;;;;;5.07;3.20;;;28.30;93.80;;;;;;5072247;28;20291;-57
2021/08/20 10:16:35;;;;;;;4.40;3.15;;;27.60;94.60;;;;;;5070601;28;20212;-57
2021/08/20 10:19:04;;;;;;;3.50;2.92;;;26.80;95.40;;;;;;5072016;28;20234;-58
2021/08/20 10:21:32;;;;;;;3.83;3.25;;;26.30;96.80;;;;;;5072339;28;20566;-58
2021/08/20 10:23:59;;;;;;;6.07;3.72;;;25.90;97.30;;;;;;5072118;28;20200;-61
2021/08/20 10:26:28;;;;;;;6.40;3.67;;;25.40;98.20;;;;;;5083446;28;20204;-59
2021/08/20 10:28:55;;;;;;;6.13;3.50;;;25.10;99.10;;;;;;5092227;28;20644;-58
2021/08/20 10:31:25;;;;;;;4.95;2.85;;;25.30;99.30;;;;;;5092104;28;20782;-60
2021/08/20 10:33:51;;;;;;;6.38;3.28;;;25.40;99.90;;;;;;5092398;28;20208;-59
2021/08/20 10:36:36;;;;;;;5.72;3.70;;;25.50;99.80;;;;;;5092344;28;20204;-62
2021/08/20 10:39:03;;;;;;;6.40;3.72;;;25.70;99.40;;;;;;5091823;28;20244;-61
2021/08/20 10:41:29;;;;;;;5.22;3.53;;;25.50;98.70;;;;;;5092289;28;20204;-61
2021/08/20 10:43:59;;;;;;;5.97;4.22;;;25.20;99.50;;;;;;5092172;28;20204;-60
2021/08/20 10:47:08;;;;;;;4.13;3.55;;;25.10;99.20;;;;;;5092040;28;20208;-60
2021/08/20 10:49:44;;;;;;;4.57;2.80;;;25.20;99.30;;;;;;5091408;28;20327;-62
2021/08/20 10:52:27;;;;;;;5.10;3.42;;;25.10;99.90;;;;;;5092377;28;20231;-61
2021/08/20 10:55:25;;;;;;;7.00;3.55;;;25.20;99.90;;;;;;5092209;28;20208;-60
2021/08/20 10:58:01;;;;;;;3.53;3.05;;;25.30;99.90;;;;;;5091699;28;20232;-62
2021/08/20 11:00:29;;;;;;;5.40;3.50;;;25.50;99.90;;;;;;5091966;28;20200;-62
2021/08/20 11:02:57;;;;;;;4.72;3.10;;;25.70;99.00;;;;;;5091817;28;20200;-61
2021/08/20 11:05:39;;;;;;;4.55;2.80;;;25.70;98.00;;;;;;5091900;28;20204;-62
2021/08/20 11:08:33;;;;;;;5.47;2.92;;;25.60;97.60;;;;;;5091514;28;20281;-61
2021/08/20 11:11:01;;;;;;;4.22;3.08;;;25.30;97.70;;;;;;5091993;28;20224;-63
2021/08/20 11:13:28;;;;;;;3.30;3.00;;;25.50;97.40;;;;;;5091648;28;20208;-60
2021/08/20 11:15:55;;;;;;;3.30;2.95;;;25.80;96.90;;;;;;5091428;28;20436;-65
2021/08/20 11:18:40;;;;;;;7.18;3.28;;;26.10;96.30;;;;;;5091374;28;20371;-57
2021/08/20 11:21:08;;;;;;;5.07;2.78;;;26.50;96.10;;;;;;5091763;28;20205;-57
2021/08/20 11:23:35;;;;;;;3.80;2.65;;;26.90;96.00;;;;;;5091457;28;20216;-56
2021/08/20 11:26:03;;;;;;;5.03;2.70;;;27.20;95.00;;;;;;5091412;28;20212;-57
2021/08/20 11:28:32;;;;;;;3.47;2.70;;;27.20;95.30;;;;;;5091221;28;20234;-58
2021/08/20 11:31:00;;;;;;;5.18;3.78;;;27.00;94.70;;;;;;5091176;28;20269;-57
2021/08/20 11:33:28;;;;;;;3.72;2.55;;;26.80;94.40;;;;;;5091646;28;20215;-58
2021/08/20 11:35:58;;;;;;;5.07;2.83;;;26.80;93.20;;;;;;5090928;28;20226;-56
2021/08/20 11:38:29;;;;;;;3.97;2.10;;;26.80;93.10;;;;;;5090804;28;20258;-56
2021/08/20 11:41:02;;;;;;;2.95;2.00;;;26.80;92.70;;;;;;5091173;28;20781;-57
2021/08/20 11:43:29;;;;;;;3.10;2.10;;;27.00;91.40;;;;;;5090896;28;20287;-56
2021/08/20 11:46:00;;;;;;;4.15;2.00;;;27.20;90.70;;;;;;5091248;28;20265;-57
2021/08/20 11:48:27;;;;;;;4.32;2.70;;;27.40;89.80;;;;;;5091281;28;20224;-56
2021/08/20 11:50:54;;;;;;;2.53;2.22;;;27.50;88.40;;;;;;5090932;28;20273;-57
2021/08/20 11:53:23;;;;;;;3.78;2.20;;;27.30;90.00;;;;;;5091013;28;20208;-57
2021/08/20 11:55:52;;;;;;;2.95;2.60;;;27.30;89.20;;;;;;5091001;28;20642;-58
2021/08/20 11:58:28;;;;;;;3.63;2.60;;;27.30;89.30;;;;;;5090275;28;20224;-58
2021/08/20 12:00:55;;;;;;;4.50;2.35;;;27.30;88.40;;;;;;5090811;28;20668;-59
2021/08/20 12:03:22;;;;;;;4.20;2.50;;;27.40;89.20;;;;;;5090907;28;20204;-59
2021/08/20 12:05:49;;;;;;;4.82;2.35;;;27.50;89.70;;;;;;5091122;28;20634;-58
2021/08/20 12:08:18;;;;;;;3.80;2.50;;;27.70;89.60;;;;;;5091040;28;20711;-58
2021/08/20 12:10:46;;;;;;;3.35;2.40;;;27.80;87.60;;;;;;5091012;28;20431;-59
2021/08/20 12:13:14;;;;;;;6.47;2.67;;;27.80;86.90;;;;;;5091137;28;20377;-59
2021/08/20 12:15:41;;;;;;;3.22;2.47;;;27.80;84.70;;;;;;5090722;28;20215;-58
2021/08/20 12:18:25;;;;;;;4.00;2.40;;;27.60;85.10;;;;;;5090725;28;20234;-59
2021/08/20 12:20:53;;;;;;;4.15;2.30;;;27.50;86.00;;;;;;5090761;28;20205;-58
2021/08/20 12:23:19;;;;;;;4.43;2.40;;;27.30;87.50;;;;;;5090941;28;20208;-57
2021/08/20 12:25:46;;;;;;;5.13;2.63;;;27.40;87.30;;;;;;5091080;28;20267;-59
2021/08/20 12:28:17;;;;;;;3.15;2.42;;;27.60;84.10;;;;;;5090495;28;20220;-58
2021/08/20 12:30:45;;;;;;;2.63;2.33;;;27.60;84.80;;;;;;5090474;28;20715;-58
2021/08/20 12:33:12;;;;;;;9.25;6.47;;;27.50;83.10;;;;;;5090592;28;20204;-59
2021/08/20 12:35:39;;;;;;;2.53;2.17;;;27.30;83.00;;;;;;5090376;28;20212;-58
2021/08/20 12:38:11;;;;;;;3.33;2.40;;;27.20;84.00;;;;;;5090448;28;20606;-58
2021/08/20 12:40:43;;;;;;;2.33;2.10;;;27.20;84.60;;;;;;5090657;28;20200;-59
2021/08/20 12:43:28;;;;;;;2.50;2.30;;;27.20;86.70;;;;;;5090522;28;20204;-58
2021/08/20 12:46:08;;;;;;;3.65;2.67;;;27.30;84.80;;;;;;5090320;28;20211;-59
2021/08/20 12:48:35;;;;;;;4.25;2.30;;;27.40;84.20;;;;;;5094174;28;20234;-59
2021/08/20 12:51:04;;;;;;;3.88;2.03;;;27.50;83.50;;;;;;5094637;28;20224;-59